Weather History for Appleton, MN

Change the Weather History Date:

Friday, September 14, 2012

  Actual Average Record
Temperature  
Mean Temperature 58 °F -  
Max Temperature 78 °F 72 °F 84 °F (2006)
Min Temperature 39 °F 48 °F 37 °F (2011)
Degree Days  
Heating Degree Days 6    
Growing Degree Days 8 (Base 50)    
Moisture  
Dew Point 32 °F    
Average Humidity 43    
Maximum Humidity 87    
Minimum Humidity 13    
Precipitation  
Precipitation 0.00 in - - ()
Sea Level Pressure  
Sea Level Pressure 30.26 in    
Wind  
Wind Speed 7 mph (East)    
Max Wind Speed 14 mph    
Max Gust Speed 21 mph    
Visibility 10 miles    
Events      
Averages and records for this station are not official NWS values.
T = Trace of Precipitation, MM = Missing Value Source: NWS Daily Summary

Daily Weather History Graph

Daily Weather History Graph

Search for Another Location

Airport:

Trip Planner

Search our weather history database for the weather conditions in past years. The results will help you decide how hot, cold, wet, or windy it might be!

Date:

Astronomy

Sep. 14, 2012 Rise Set
Actual Time 7:02 AM CDT 7:35 PM CDT
Civil Twilight 6:32 AM CDT 8:05 PM CDT
Nautical Twilight 5:57 AM CDT 8:40 PM CDT
Astronomical Twilight 5:20 AM CDT 9:16 PM CDT
Moon 5:25 AM CDT (9/14) 6:33 PM CDT (9/14)
Length of Visible Light 13h 33m
Length of Day
12h 33m
Waning Crescent, 2% of the Moon is Illuminated
Sep 14
Waning Crescent
Sep 15
New
Sep 22
First Quarter
Sep 29
Full
Oct 8
Last Quarter

Hourly Weather History & Observations

Time (CDT) Temp. Windchill Dew Point Humidity Pressure Visibility Wind Dir Wind Speed Gust Speed Precip Events Conditions
12:18 AM 53.6 °F - 37.4 °F 54% 30.27 in 10.0 mi ENE 5.8 mph - N/A   Clear
12:37 AM 53.6 °F - 37.4 °F 54% 30.28 in 10.0 mi ENE 5.8 mph - N/A   Clear
12:57 AM 51.8 °F - 37.4 °F 58% 30.28 in 10.0 mi ENE 5.8 mph - N/A   Clear
1:18 AM 50.0 °F - 37.4 °F 62% 30.28 in 10.0 mi ENE 5.8 mph - N/A   Clear
1:57 AM 51.8 °F - 35.6 °F 54% 30.27 in 10.0 mi East 8.1 mph - N/A   Clear
2:18 AM 51.8 °F - 33.8 °F 50% 30.27 in 10.0 mi East 10.4 mph - N/A   Clear
2:37 AM 51.8 °F - 33.8 °F 50% 30.27 in 10.0 mi East 9.2 mph - N/A   Clear
2:57 AM 50.0 °F - 35.6 °F 58% 30.26 in 10.0 mi East 8.1 mph - N/A   Clear
3:18 AM 48.2 °F - 35.6 °F 62% 30.27 in 10.0 mi East 8.1 mph - N/A   Clear
3:37 AM 48.2 °F - 35.6 °F 62% 30.27 in 10.0 mi ENE 5.8 mph - N/A   Clear
3:58 AM 44.6 °F 40.7 °F 35.6 °F 71% 30.27 in 10.0 mi ENE 6.9 mph - N/A   Clear
4:18 AM 42.8 °F 40.1 °F 35.6 °F 76% 30.28 in 10.0 mi ENE 4.6 mph - N/A   Clear
4:37 AM 44.6 °F 40.2 °F 35.6 °F 71% 30.28 in 10.0 mi ENE 8.1 mph - N/A   Clear
4:58 AM 46.4 °F 42.9 °F 35.6 °F 66% 30.28 in 10.0 mi East 6.9 mph - N/A   Clear
5:17 AM 46.4 °F 42.9 °F 35.6 °F 66% 30.28 in 10.0 mi East 6.9 mph - N/A   Clear
5:38 AM 46.4 °F 41.9 °F 35.6 °F 66% 30.29 in 10.0 mi NE 9.2 mph - N/A   Clear
5:58 AM 42.8 °F 40.1 °F 35.6 °F 76% 30.29 in 10.0 mi ENE 4.6 mph - N/A   Clear
6:18 AM 42.8 °F 41.1 °F 35.6 °F 76% 30.30 in 10.0 mi NE 3.5 mph - N/A   Clear
6:37 AM 42.8 °F 41.1 °F 35.6 °F 76% 30.29 in 10.0 mi East 3.5 mph - N/A   Clear
6:58 AM 41.0 °F - 35.6 °F 81% 30.29 in 10.0 mi Calm Calm - N/A   Clear
7:19 AM 39.2 °F - 35.6 °F 87% 30.30 in 10.0 mi Calm Calm - N/A   Clear
7:38 AM 41.0 °F - 35.6 °F 81% 30.31 in 10.0 mi Calm Calm - N/A   Clear
7:57 AM 42.8 °F - 37.4 °F 81% 30.31 in 10.0 mi Calm Calm - N/A   Clear
8:18 AM 46.4 °F - 37.4 °F 71% 30.31 in 10.0 mi Calm Calm - N/A   Clear
8:38 AM 51.8 °F - 37.4 °F 58% 30.31 in 10.0 mi East 4.6 mph - N/A   Clear
8:58 AM 53.6 °F - 39.2 °F 58% 30.31 in 10.0 mi ESE 5.8 mph - N/A   Clear
9:17 AM 55.4 °F - 37.4 °F 51% 30.32 in 10.0 mi East 5.8 mph - N/A   Clear
9:37 AM 57.2 °F - 37.4 °F 48% 30.31 in 10.0 mi East 9.2 mph - N/A   Clear
9:58 AM 60.8 °F - 35.6 °F 39% 30.32 in 10.0 mi ESE 8.1 mph - N/A   Clear
10:18 AM 62.6 °F - 35.6 °F 37% 30.32 in 10.0 mi SE 6.9 mph - N/A   Clear
10:37 AM 64.4 °F - 33.8 °F 32% 30.32 in 10.0 mi East 10.4 mph - N/A   Clear
10:59 AM 66.2 °F - 33.8 °F 30% 30.32 in 10.0 mi ESE 8.1 mph - N/A   Clear
11:18 AM 69.8 °F - 30.2 °F 23% 30.32 in 10.0 mi ESE 13.8 mph - N/A   Clear
11:38 AM 69.8 °F - 28.4 °F 21% 30.32 in 10.0 mi ESE 10.4 mph - N/A   Clear
11:58 AM 71.6 °F - 28.4 °F 20% 30.31 in 10.0 mi ESE 9.2 mph - N/A   Clear
12:37 PM 73.4 °F - 26.6 °F 18% 30.30 in 10.0 mi East 9.2 mph - N/A   Clear
12:58 PM 73.4 °F - 26.6 °F 18% 30.30 in 10.0 mi SE 12.7 mph 17.3 mph N/A   Clear
1:18 PM 73.4 °F - 24.8 °F 16% 30.29 in 10.0 mi ESE 5.8 mph 9.2 mph N/A   Clear
1:38 PM 73.4 °F - 24.8 °F 16% 30.29 in 10.0 mi ESE 9.2 mph - N/A   Clear
1:58 PM 75.2 °F - 24.8 °F 15% 30.28 in 10.0 mi East 9.2 mph - N/A   Clear
2:17 PM 75.2 °F - 23.0 °F 14% 30.27 in 10.0 mi East 10.4 mph 16.1 mph N/A   Clear
2:38 PM 75.2 °F - 24.8 °F 15% 30.27 in 10.0 mi ESE 10.4 mph 17.3 mph N/A   Clear
2:57 PM 77.0 °F - 24.8 °F 14% 30.26 in 10.0 mi SE 10.4 mph - N/A   Clear
3:17 PM 77.0 °F - 24.8 °F 14% 30.26 in 10.0 mi ESE 10.4 mph 20.7 mph N/A   Clear
3:37 PM 77.0 °F - 23.0 °F 13% 30.25 in 10.0 mi SSE 8.1 mph - N/A   Clear
3:57 PM 77.0 °F - 23.0 °F 13% 30.25 in 10.0 mi ESE 9.2 mph - N/A   Clear
4:18 PM 78.8 °F - 23.0 °F 13% 30.24 in 10.0 mi East 11.5 mph - N/A   Clear
4:37 PM 78.8 °F - 23.0 °F 13% 30.24 in 10.0 mi SE 6.9 mph - N/A   Clear
4:58 PM 78.8 °F - 23.0 °F 13% 30.23 in 10.0 mi SE 9.2 mph - N/A   Clear
5:18 PM 78.8 °F - 24.8 °F 14% 30.23 in 10.0 mi SE 5.8 mph - N/A   Clear
5:38 PM 77.0 °F - 24.8 °F 14% 30.22 in 10.0 mi East 9.2 mph - N/A   Clear
5:57 PM 75.2 °F - 24.8 °F 15% 30.21 in 10.0 mi East 11.5 mph - N/A   Clear
6:17 PM 75.2 °F - 26.6 °F 17% 30.21 in 10.0 mi East 10.4 mph - N/A   Clear
6:37 PM 73.4 °F - 28.4 °F 19% 30.20 in 10.0 mi East 11.5 mph - N/A   Clear
6:58 PM 71.6 °F - 30.2 °F 22% 30.20 in 10.0 mi East 9.2 mph - N/A   Clear
7:19 PM 69.8 °F - 30.2 °F 23% 30.20 in 10.0 mi East 8.1 mph - N/A   Clear
7:38 PM 66.2 °F - 32.0 °F 28% 30.20 in 10.0 mi East 9.2 mph - N/A   Clear
7:58 PM 64.4 °F - 33.8 °F 32% 30.20 in 10.0 mi East 9.2 mph - N/A   Clear
8:18 PM 62.6 °F - 33.8 °F 34% 30.20 in 10.0 mi East 9.2 mph - N/A   Clear
8:38 PM 62.6 °F - 35.6 °F 37% 30.20 in 10.0 mi East 8.1 mph - N/A   Clear
8:58 PM 60.8 °F - 35.6 °F 39% 30.20 in 10.0 mi East 8.1 mph - N/A   Clear
9:17 PM 59.0 °F - 35.6 °F 42% 30.20 in 10.0 mi East 6.9 mph - N/A   Clear
9:38 PM 57.2 °F - 35.6 °F 44% 30.20 in 10.0 mi East 8.1 mph - N/A   Clear
9:58 PM 57.2 °F - 37.4 °F 48% 30.20 in 10.0 mi East 8.1 mph - N/A   Clear
10:18 PM 55.4 °F - 37.4 °F 51% 30.20 in 10.0 mi East 8.1 mph - N/A   Clear
10:58 PM 53.6 °F - 37.4 °F 54% 30.20 in 10.0 mi East 6.9 mph - N/A   Clear
11:18 PM 51.8 °F - 37.4 °F 58% 30.20 in 10.0 mi East 5.8 mph - N/A   Clear
11:38 PM 51.8 °F - 37.4 °F 58% 30.19 in 10.0 mi East 4.6 mph - N/A   Clear
11:57 PM 51.8 °F - 39.2 °F 62% 30.19 in 10.0 mi ESE 3.5 mph - N/A   Clear